Time;durP1;ratioP1;P1;durP2;ratioP2;P2;SDS_P1;SDS_P2;PMS_P1;PMS_P2;Temp;Humidity;BMP_temperature;BMP_pressure;BME280_temperature;BME280_humidity;BME280_pressure;Samples;Min_cycle;Max_cycle;Signal;HPM_P1;HPM_P2
2022/10/09 00:04:04;;;;;;;7.10;4.82;;;9.60;99.90;;;;;;4985131;28;20225;-80
2022/10/09 00:06:33;;;;;;;6.55;4.88;;;9.70;99.90;;;;;;5032383;23;20236;-85
2022/10/09 00:09:02;;;;;;;9.07;5.38;;;9.60;99.90;;;;;;5009725;28;20217;-86
2022/10/09 00:11:31;;;;;;;7.63;5.40;;;9.60;99.90;;;;;;5007537;28;20260;-85
2022/10/09 00:13:58;;;;;;;8.45;5.13;;;9.50;99.90;;;;;;5005201;28;20278;-85
2022/10/09 00:16:27;;;;;;;13.95;6.13;;;9.50;99.90;;;;;;5008187;28;20205;-82
2022/10/09 00:18:55;;;;;;;5.57;5.07;;;9.40;99.90;;;;;;5007279;28;20215;-86
2022/10/09 00:21:28;;;;;;;7.78;5.45;;;9.50;99.90;;;;;;5005681;28;20213;-86
2022/10/09 00:23:58;;;;;;;9.73;5.60;;;9.30;99.90;;;;;;5003104;28;20209;-86
2022/10/09 00:26:26;;;;;;;9.63;5.72;;;9.40;99.90;;;;;;5003189;28;20193;-84
2022/10/09 00:28:56;;;;;;;6.47;5.38;;;9.40;99.90;;;;;;5007001;28;20217;-87
2022/10/09 00:31:23;;;;;;;8.05;4.97;;;9.30;99.90;;;;;;5005006;28;20281;-84
2022/10/09 00:33:52;;;;;;;6.90;6.03;;;9.30;99.90;;;;;;5007893;28;20245;-83
2022/10/09 00:36:24;;;;;;;6.85;5.47;;;9.20;99.90;;;;;;5007039;28;20212;-85
2022/10/09 00:38:53;;;;;;;12.80;6.15;;;9.30;99.90;;;;;;4997786;28;20358;-86
2022/10/09 00:41:23;;;;;;;6.00;5.20;;;9.30;99.90;;;;;;5010679;28;20223;-82
2022/10/09 00:43:52;;;;;;;5.53;5.03;;;9.30;99.90;;;;;;5208283;23;20261;-84
2022/10/09 00:46:44;;;;;;;7.32;5.03;;;9.30;99.90;;;;;;4994562;28;20247;-84
2022/10/09 00:49:32;;;;;;;5.68;4.80;;;9.20;99.90;;;;;;4998386;28;20400;-85
2022/10/09 00:52:02;;;;;;;7.07;4.90;;;9.10;99.90;;;;;;5002367;28;20244;-82
2022/10/09 00:54:33;;;;;;;5.60;5.00;;;9.20;99.90;;;;;;5094920;23;20232;-84
2022/10/09 00:57:00;;;;;;;10.45;5.50;;;9.10;99.90;;;;;;5025167;23;20285;-88
2022/10/09 00:59:27;;;;;;;7.53;4.72;;;9.10;99.90;;;;;;4988888;28;20255;-86
2022/10/09 01:01:55;;;;;;;6.25;5.65;;;9.30;99.90;;;;;;5011387;28;20189;-87
2022/10/09 01:04:22;;;;;;;8.70;6.03;;;9.20;99.90;;;;;;5010005;28;20188;-86
2022/10/09 01:10:09;;;;;;;6.53;5.22;;;9.20;99.90;;;;;;4935267;29;20226;-86
2022/10/09 01:15:37;;;;;;;8.75;5.35;;;9.00;99.90;;;;;;4991265;23;20256;-88
2022/10/09 01:18:20;;;;;;;8.45;4.80;;;9.00;99.90;;;;;;4944054;29;20210;-88
2022/10/09 01:20:55;;;;;;;12.50;5.28;;;9.10;99.90;;;;;;4978352;23;20305;-87
2022/10/09 01:27:04;;;;;;;9.88;5.70;;;9.20;99.90;;;;;;5315291;23;20337;-83
2022/10/09 01:29:36;;;;;;;6.03;4.10;;;9.00;99.90;;;;;;5034457;23;20640;-86
2022/10/09 01:32:06;;;;;;;5.70;5.07;;;8.90;99.90;;;;;;5089920;23;20599;-84
2022/10/09 01:34:34;;;;;;;7.03;5.32;;;8.90;99.90;;;;;;4947221;29;20305;-85
2022/10/09 01:37:02;;;;;;;4.70;4.30;;;8.80;99.90;;;;;;4947686;29;20239;-86
2022/10/09 01:39:31;;;;;;;8.50;4.40;;;9.00;99.90;;;;;;4948044;29;20317;-84
2022/10/09 01:41:58;;;;;;;6.63;4.15;;;8.80;99.90;;;;;;4947290;29;20262;-85
2022/10/09 01:44:28;;;;;;;6.38;4.30;;;8.80;99.90;;;;;;4945759;29;20510;-84
2022/10/09 01:46:56;;;;;;;5.15;4.32;;;8.90;99.90;;;;;;4946099;29;20269;-87
2022/10/09 01:49:41;;;;;;;4.93;4.10;;;9.00;99.90;;;;;;4948875;29;20257;-87
2022/10/09 01:52:59;;;;;;;4.90;3.70;;;9.00;99.90;;;;;;4948920;29;20382;-85
2022/10/09 01:55:43;;;;;;;4.70;4.25;;;9.00;99.90;;;;;;4941845;29;20218;-85
2022/10/09 01:58:28;;;;;;;5.68;4.43;;;9.00;99.90;;;;;;4943473;29;20234;-83
2022/10/09 02:01:36;;;;;;;5.05;4.03;;;9.00;99.90;;;;;;4939543;29;20241;-85
2022/10/09 02:04:09;;;;;;;6.45;4.22;;;8.90;99.90;;;;;;4873253;29;20267;-88
2022/10/09 02:06:39;;;;;;;9.60;4.60;;;8.90;99.90;;;;;;4872578;29;20213;-83
2022/10/09 02:09:10;;;;;;;4.20;3.90;;;8.70;99.90;;;;;;4908547;29;20286;-85
2022/10/09 02:11:41;;;;;;;5.55;3.45;;;8.70;99.90;;;;;;4943329;29;20241;-82
2022/10/09 02:14:08;;;;;;;5.35;4.43;;;8.70;99.90;;;;;;4947727;29;20207;-85
2022/10/09 02:16:45;;;;;;;4.15;3.45;;;8.70;99.90;;;;;;4927141;29;20209;-84
2022/10/09 02:19:20;;;;;;;9.80;4.10;;;8.70;99.90;;;;;;4943572;29;20213;-87
2022/10/09 02:21:58;;;;;;;5.35;3.75;;;8.70;99.90;;;;;;4920011;29;20296;-86
2022/10/09 02:24:26;;;;;;;6.30;3.75;;;8.60;99.90;;;;;;4944112;29;20226;-87
2022/10/09 02:26:54;;;;;;;6.82;3.50;;;8.70;99.90;;;;;;4926335;29;20214;-86
2022/10/09 02:29:20;;;;;;;4.25;3.72;;;8.70;99.90;;;;;;4942819;29;20425;-84
2022/10/09 02:31:47;;;;;;;7.35;4.10;;;8.70;99.90;;;;;;4944480;29;20233;-85
2022/10/09 02:34:19;;;;;;;3.50;3.20;;;8.80;99.90;;;;;;4927498;29;20225;-86
2022/10/09 02:36:46;;;;;;;5.22;4.43;;;8.60;99.90;;;;;;4942723;29;20266;-86
2022/10/09 02:39:14;;;;;;;4.40;4.00;;;8.70;99.90;;;;;;4943973;29;20248;-86
2022/10/09 02:41:43;;;;;;;5.32;4.03;;;8.70;99.90;;;;;;4944749;29;20292;-86
2022/10/09 02:44:12;;;;;;;4.40;3.65;;;8.60;99.90;;;;;;4942508;29;20257;-86
2022/10/09 02:46:40;;;;;;;6.90;3.30;;;8.70;99.90;;;;;;4949097;28;20217;-85
2022/10/09 02:49:08;;;;;;;6.07;3.45;;;8.80;99.90;;;;;;4935866;28;20219;-82
2022/10/09 02:51:35;;;;;;;6.72;3.33;;;8.80;99.90;;;;;;4952037;28;20206;-84
2022/10/09 02:54:02;;;;;;;4.10;3.80;;;8.60;99.90;;;;;;4953000;29;20205;-83
2022/10/09 02:56:29;;;;;;;5.65;4.15;;;8.70;99.90;;;;;;4953637;29;20237;-83
2022/10/09 02:59:03;;;;;;;5.57;3.75;;;8.70;99.90;;;;;;4952127;29;20242;-83
2022/10/09 03:01:35;;;;;;;5.10;3.78;;;8.60;99.90;;;;;;4936759;29;20257;-85
2022/10/09 03:04:03;;;;;;;5.78;4.10;;;8.50;99.90;;;;;;4946561;29;20208;-86
2022/10/09 03:06:30;;;;;;;6.03;4.30;;;8.50;99.90;;;;;;4946338;29;20214;-85
2022/10/09 03:08:57;;;;;;;4.45;3.92;;;8.60;99.90;;;;;;4944365;29;20433;-86
2022/10/09 03:11:25;;;;;;;5.32;3.47;;;8.50;99.90;;;;;;4945797;29;20188;-86
2022/10/09 03:13:53;;;;;;;5.30;4.22;;;8.40;99.90;;;;;;4949371;29;20600;-85
2022/10/09 03:16:22;;;;;;;4.35;3.70;;;8.50;99.90;;;;;;4948169;29;20210;-84
2022/10/09 03:18:51;;;;;;;6.32;3.65;;;8.40;99.90;;;;;;4939955;29;20214;-84
2022/10/09 03:21:23;;;;;;;6.78;4.35;;;8.30;99.90;;;;;;4947526;29;20284;-83
2022/10/09 03:23:51;;;;;;;4.35;3.88;;;8.10;99.90;;;;;;4941443;29;20256;-85
2022/10/09 03:26:21;;;;;;;10.43;3.97;;;8.20;99.90;;;;;;4948827;29;20218;-83
2022/10/09 03:28:49;;;;;;;8.18;3.97;;;8.10;99.90;;;;;;4949293;29;20249;-84
2022/10/09 03:31:18;;;;;;;9.30;4.35;;;8.20;99.90;;;;;;4948982;29;20267;-84
2022/10/09 03:34:05;;;;;;;6.93;4.45;;;8.30;99.90;;;;;;4948590;29;20217;-85
2022/10/09 03:36:33;;;;;;;11.27;4.00;;;8.10;99.90;;;;;;4934636;29;20656;-84
2022/10/09 03:39:00;;;;;;;4.68;3.92;;;8.00;99.90;;;;;;4950152;29;20738;-84
2022/10/09 03:41:30;;;;;;;5.82;5.22;;;8.10;99.90;;;;;;4950489;29;20681;-85
2022/10/09 03:43:57;;;;;;;9.80;4.57;;;8.00;99.90;;;;;;4951753;29;20213;-87
2022/10/09 03:46:24;;;;;;;4.63;4.10;;;7.90;99.90;;;;;;4953551;29;20227;-85
2022/10/09 03:48:52;;;;;;;11.40;4.32;;;7.90;99.90;;;;;;4960173;28;20213;-85
2022/10/09 03:51:19;;;;;;;6.53;4.03;;;7.90;99.90;;;;;;4949721;29;20272;-85
2022/10/09 03:53:46;;;;;;;7.60;4.80;;;8.00;99.90;;;;;;4932193;29;20209;-85
2022/10/09 03:56:15;;;;;;;5.55;3.92;;;8.00;99.90;;;;;;4932357;29;20247;-86
2022/10/09 03:58:42;;;;;;;5.70;4.38;;;8.10;99.90;;;;;;4948164;29;20209;-85
2022/10/09 04:01:09;;;;;;;4.55;4.10;;;8.00;99.90;;;;;;4951197;29;20260;-85
2022/10/09 04:03:36;;;;;;;6.07;4.13;;;7.90;99.90;;;;;;4947743;29;20272;-85
2022/10/09 04:06:04;;;;;;;5.43;4.28;;;7.90;99.90;;;;;;4930889;29;20200;-84
2022/10/09 04:08:32;;;;;;;10.68;5.22;;;8.00;99.90;;;;;;4948303;29;20264;-84
2022/10/09 04:10:59;;;;;;;4.45;3.85;;;8.10;99.90;;;;;;4934089;29;20209;-83
2022/10/09 04:13:29;;;;;;;6.47;4.93;;;8.10;99.90;;;;;;4942517;29;20236;-85
2022/10/09 04:15:57;;;;;;;6.05;4.50;;;8.20;99.90;;;;;;4956613;29;20268;-84
2022/10/09 04:18:24;;;;;;;8.60;4.22;;;8.10;99.90;;;;;;4950483;29;20240;-84
2022/10/09 04:20:54;;;;;;;5.25;4.20;;;8.10;99.90;;;;;;4948146;29;20787;-84
2022/10/09 04:23:23;;;;;;;9.07;4.45;;;8.00;99.90;;;;;;4947429;29;20216;-83
2022/10/09 04:25:55;;;;;;;5.60;4.35;;;8.00;99.90;;;;;;4945323;29;20219;-84
2022/10/09 04:28:23;;;;;;;7.45;4.40;;;8.00;99.90;;;;;;4944535;29;20212;-84
2022/10/09 04:30:51;;;;;;;5.82;4.28;;;8.00;99.90;;;;;;4929541;29;20199;-86
2022/10/09 04:33:18;;;;;;;6.32;4.72;;;8.00;99.90;;;;;;4929210;29;20280;-85
2022/10/09 04:35:49;;;;;;;5.55;3.97;;;7.90;99.90;;;;;;4952872;29;20194;-84
2022/10/09 04:38:16;;;;;;;8.30;4.45;;;7.80;99.90;;;;;;4954956;29;20193;-85
2022/10/09 04:40:53;;;;;;;7.93;4.35;;;7.90;99.90;;;;;;4959351;29;20224;-83
2022/10/09 04:43:20;;;;;;;7.63;3.92;;;7.90;99.90;;;;;;4961413;29;20214;-83
2022/10/09 04:45:47;;;;;;;9.32;4.85;;;7.90;99.90;;;;;;4961685;29;20209;-83
2022/10/09 04:48:15;;;;;;;8.18;3.70;;;7.80;99.90;;;;;;4949953;29;20192;-85
2022/10/09 04:53:16;;;;;;;9.30;4.38;;;7.80;99.90;;;;;;4939030;29;20221;-83
2022/10/09 04:55:44;;;;;;;6.68;4.75;;;7.70;99.90;;;;;;4931026;29;20403;-86
2022/10/09 04:58:12;;;;;;;6.78;4.38;;;7.70;99.90;;;;;;4924008;29;20221;-84
2022/10/09 05:00:43;;;;;;;13.52;4.47;;;7.70;99.90;;;;;;4927250;29;20300;-83
2022/10/09 05:03:11;;;;;;;11.75;5.50;;;7.70;99.90;;;;;;4928246;29;20213;-85
2022/10/09 05:05:38;;;;;;;6.78;4.75;;;7.70;99.90;;;;;;4896760;29;20580;-85
2022/10/09 05:08:05;;;;;;;5.60;4.25;;;7.80;99.90;;;;;;4927968;29;20205;-87
2022/10/09 05:10:32;;;;;;;5.95;4.30;;;7.70;99.90;;;;;;4927726;29;20212;-87
2022/10/09 05:12:59;;;;;;;7.55;4.30;;;7.60;99.90;;;;;;4911143;29;20209;-87
2022/10/09 05:15:26;;;;;;;8.18;5.10;;;7.70;99.90;;;;;;4946715;29;20223;-85
2022/10/09 05:17:53;;;;;;;5.20;4.38;;;7.80;99.90;;;;;;4957190;29;20221;-84
2022/10/09 05:20:20;;;;;;;6.25;4.30;;;7.90;99.90;;;;;;4939341;29;20197;-83
2022/10/09 05:22:51;;;;;;;15.13;5.68;;;7.80;99.90;;;;;;4940316;29;20192;-83
2022/10/09 05:25:18;;;;;;;6.07;4.25;;;7.80;99.90;;;;;;4944589;29;20220;-87
2022/10/09 05:27:55;;;;;;;9.88;5.00;;;7.90;99.90;;;;;;4943288;29;20283;-87
2022/10/09 05:30:21;;;;;;;5.78;4.20;;;7.90;99.90;;;;;;4940339;29;20211;-87
2022/10/09 05:32:56;;;;;;;7.07;4.40;;;8.00;99.90;;;;;;4945712;29;20267;-87
2022/10/09 05:35:25;;;;;;;6.28;4.55;;;8.00;99.90;;;;;;4952990;29;20213;-83
2022/10/09 05:37:51;;;;;;;12.35;5.05;;;8.00;99.90;;;;;;4939149;29;20200;-82
2022/10/09 05:40:18;;;;;;;7.38;4.80;;;8.00;99.90;;;;;;4959914;29;20200;-83
2022/10/09 05:42:48;;;;;;;8.00;4.35;;;7.90;99.90;;;;;;4927452;29;20193;-84
2022/10/09 05:45:16;;;;;;;6.25;4.75;;;7.80;99.90;;;;;;4944555;29;20229;-83
2022/10/09 05:47:43;;;;;;;11.25;5.35;;;7.90;99.90;;;;;;4938959;29;20233;-82
2022/10/09 05:50:10;;;;;;;11.80;5.43;;;8.00;99.90;;;;;;4933583;29;20218;-84
2022/10/09 05:52:38;;;;;;;14.45;5.47;;;8.10;99.90;;;;;;4938734;29;20201;-84
2022/10/09 05:55:06;;;;;;;5.78;4.35;;;8.10;99.90;;;;;;4940364;29;20198;-81
2022/10/09 05:57:33;;;;;;;8.73;4.18;;;8.20;99.90;;;;;;4934191;29;20213;-84
2022/10/09 06:00:02;;;;;;;4.90;4.20;;;8.10;99.90;;;;;;4933278;29;20431;-83
2022/10/09 06:02:38;;;;;;;6.25;4.68;;;8.20;99.90;;;;;;4938270;29;20269;-85
2022/10/09 06:05:11;;;;;;;6.13;5.03;;;8.30;99.90;;;;;;4926006;29;20320;-85
2022/10/09 06:07:38;;;;;;;10.35;5.28;;;8.30;99.90;;;;;;4923359;29;20222;-85
2022/10/09 06:10:06;;;;;;;7.63;4.10;;;8.80;99.90;;;;;;4956985;29;20210;-82
2022/10/09 06:12:36;;;;;;;8.07;4.03;;;9.30;99.90;;;;;;4930735;29;20203;-84
2022/10/09 06:15:04;;;;;;;8.63;3.85;;;9.40;99.90;;;;;;4939560;29;20199;-82
2022/10/09 06:17:32;;;;;;;3.22;3.00;;;9.40;99.90;;;;;;4949167;29;20210;-86
2022/10/09 06:19:59;;;;;;;5.75;3.25;;;9.80;99.90;;;;;;4927883;29;20239;-86
2022/10/09 06:22:26;;;;;;;4.22;2.90;;;10.20;99.90;;;;;;4950353;29;20231;-83
2022/10/09 06:24:54;;;;;;;4.47;2.90;;;10.30;99.90;;;;;;4940647;29;20192;-83
2022/10/09 06:27:24;;;;;;;11.77;3.35;;;10.30;99.90;;;;;;4940458;29;20244;-84
2022/10/09 06:29:54;;;;;;;8.07;2.80;;;10.30;99.90;;;;;;4933093;29;20199;-86
2022/10/09 06:32:24;;;;;;;3.92;2.45;;;10.40;99.90;;;;;;4937739;29;20212;-84
2022/10/09 06:34:52;;;;;;;2.40;2.20;;;10.60;99.90;;;;;;4940965;29;20231;-84
2022/10/09 06:37:19;;;;;;;5.68;2.45;;;10.80;99.90;;;;;;4907601;29;20200;-85
2022/10/09 06:39:46;;;;;;;8.30;3.65;;;10.80;99.90;;;;;;4924668;29;20287;-84
2022/10/09 06:42:22;;;;;;;4.50;2.90;;;10.70;99.90;;;;;;4922105;29;20283;-83
2022/10/09 06:44:53;;;;;;;11.90;3.70;;;10.70;99.90;;;;;;4929296;29;20201;-86
2022/10/09 06:47:20;;;;;;;2.97;2.45;;;10.30;99.90;;;;;;4924034;29;20339;-84
2022/10/09 06:49:47;;;;;;;3.15;2.50;;;10.50;99.90;;;;;;4936937;29;20208;-84
2022/10/09 06:52:16;;;;;;;6.38;3.10;;;10.60;99.90;;;;;;4936540;29;20265;-85
2022/10/09 06:54:43;;;;;;;4.45;2.90;;;10.70;99.90;;;;;;4931017;29;20252;-86
2022/10/09 06:57:11;;;;;;;5.15;2.90;;;10.60;99.90;;;;;;4933307;29;20211;-83
2022/10/09 06:59:38;;;;;;;4.13;3.17;;;10.70;99.90;;;;;;4923108;29;20235;-85
2022/10/09 07:02:08;;;;;;;3.78;3.45;;;10.60;99.90;;;;;;4898366;29;20236;-83
2022/10/09 07:04:34;;;;;;;5.28;2.83;;;10.60;99.90;;;;;;4922259;29;20208;-86
2022/10/09 07:07:01;;;;;;;3.17;2.30;;;10.50;99.90;;;;;;4925726;29;20283;-85
2022/10/09 07:09:29;;;;;;;9.38;4.05;;;10.60;99.90;;;;;;4924566;29;20218;-87
2022/10/09 07:12:00;;;;;;;3.00;2.40;;;10.90;99.90;;;;;;4908311;29;20219;-83
2022/10/09 07:14:28;;;;;;;4.82;2.40;;;11.30;99.90;;;;;;4894016;29;20233;-83
2022/10/09 07:16:55;;;;;;;3.90;2.33;;;11.90;99.90;;;;;;4930765;29;20192;-87
2022/10/09 07:19:22;;;;;;;3.92;2.50;;;12.50;99.90;;;;;;4931588;29;20213;-87
2022/10/09 07:21:49;;;;;;;5.25;2.60;;;13.60;99.90;;;;;;4934520;29;20238;-86
2022/10/09 07:24:19;;;;;;;4.10;3.30;;;15.20;99.90;;;;;;4930075;29;20211;-86
2022/10/09 07:26:47;;;;;;;3.83;2.17;;;17.20;99.90;;;;;;4903809;29;20480;-88
2022/10/09 07:29:17;;;;;;;3.00;2.70;;;18.60;99.90;;;;;;4929449;29;20487;-86
2022/10/09 07:31:44;;;;;;;6.13;3.43;;;18.90;99.90;;;;;;4923764;29;21171;-83
2022/10/09 07:34:11;;;;;;;8.90;2.83;;;19.90;99.90;;;;;;4937636;29;20490;-86
2022/10/09 07:36:38;;;;;;;5.37;2.20;;;21.00;99.90;;;;;;4924779;29;20772;-86
2022/10/09 07:39:07;;;;;;;3.70;2.60;;;21.10;99.90;;;;;;4919006;29;20435;-85
2022/10/09 07:41:34;;;;;;;8.90;4.00;;;21.60;99.90;;;;;;4926591;29;20457;-85
2022/10/09 07:44:01;;;;;;;5.00;2.80;;;22.50;99.90;;;;;;4923476;29;20469;-85
2022/10/09 07:46:29;;;;;;;12.57;3.97;;;22.60;99.90;;;;;;4919373;29;20431;-84
2022/10/09 07:49:00;;;;;;;7.50;2.63;;;22.30;99.90;;;;;;4906609;29;20485;-87
2022/10/09 07:51:28;;;;;;;9.27;2.90;;;21.40;99.90;;;;;;4922002;29;20437;-85
2022/10/09 07:53:56;;;;;;;7.43;2.47;;;22.20;99.90;;;;;;4913937;29;20448;-85
2022/10/09 07:56:34;;;;;;;3.90;3.17;;;22.10;99.90;;;;;;4901475;29;20478;-85
2022/10/09 07:59:07;;;;;;;7.37;3.17;;;22.20;99.90;;;;;;4917488;29;20506;-87
2022/10/09 08:01:34;;;;;;;4.47;2.00;;;21.50;99.90;;;;;;4924655;29;20457;-86
2022/10/09 08:04:02;;;;;;;3.70;3.00;;;21.80;99.90;;;;;;4926492;29;20438;-86
2022/10/09 08:06:30;;;;;;;3.40;1.80;;;21.80;99.90;;;;;;4920944;29;20443;-88
2022/10/09 08:08:59;;;;;;;2.40;2.17;;;21.80;99.90;;;;;;4912442;29;20448;-87
2022/10/09 08:11:34;;;;;;;4.70;2.27;;;22.40;99.90;;;;;;4922647;29;20466;-87
2022/10/09 08:14:01;;;;;;;3.30;2.77;;;23.00;99.90;;;;;;4929206;29;20460;-88
2022/10/09 08:16:31;;;;;;;6.20;2.50;;;23.70;99.90;;;;;;4939266;29;20446;-90
2022/10/09 08:18:59;;;;;;;5.77;2.77;;;23.80;99.90;;;;;;4920323;29;20442;-86
2022/10/09 08:21:27;;;;;;;6.67;2.20;;;23.30;99.90;;;;;;4910249;29;20465;-84
2022/10/09 08:23:56;;;;;;;7.13;1.90;;;23.10;99.90;;;;;;4912178;29;20421;-85
2022/10/09 08:26:23;;;;;;;7.37;2.70;;;22.80;99.90;;;;;;4914451;29;20456;-84
2022/10/09 08:28:53;;;;;;;7.23;2.00;;;22.40;99.90;;;;;;4920452;29;20845;-83
2022/10/09 08:31:21;;;;;;;3.73;2.17;;;22.10;99.90;;;;;;4928948;29;20458;-83
2022/10/09 08:33:53;;;;;;;5.90;2.17;;;22.90;99.90;;;;;;4905741;29;20474;-85
2022/10/09 08:36:21;;;;;;;4.70;2.93;;;23.20;99.90;;;;;;4911191;29;20417;-84
2022/10/09 08:38:48;;;;;;;5.97;2.83;;;24.40;99.90;;;;;;4919726;29;20453;-84
2022/10/09 08:41:45;;;;;;;5.93;2.93;;;25.10;99.90;;;;;;4923153;29;20455;-84
2022/10/09 08:44:21;;;;;;;3.47;2.10;;;25.60;97.30;;;;;;4922311;29;20414;-84
2022/10/09 08:47:01;;;;;;;3.60;2.00;;;25.60;96.80;;;;;;4921609;29;20455;-85
2022/10/09 08:49:54;;;;;;;2.80;2.10;;;24.90;97.30;;;;;;4924468;29;20426;-84
2022/10/09 08:52:45;;;;;;;6.80;2.53;;;23.30;99.90;;;;;;4907903;29;20692;-83
2022/10/09 08:55:24;;;;;;;5.13;2.43;;;23.60;99.90;;;;;;4921267;29;20517;-83
2022/10/09 08:58:01;;;;;;;4.67;2.23;;;23.40;99.90;;;;;;4927646;29;20409;-86
2022/10/09 09:01:04;;;;;;;4.13;2.30;;;22.90;99.90;;;;;;4917868;29;20447;-83
2022/10/09 09:04:30;;;;;;;3.47;1.70;;;21.80;99.90;;;;;;4882476;29;20611;-83
2022/10/09 09:07:23;;;;;;;7.83;2.50;;;20.20;99.90;;;;;;4886401;29;20668;-82
2022/10/09 09:10:19;;;;;;;6.77;2.07;;;19.10;99.90;;;;;;4909288;29;20424;-84
2022/10/09 09:12:58;;;;;;;2.90;1.90;;;18.50;99.90;;;;;;4903507;29;20446;-80
2022/10/09 09:15:34;;;;;;;2.87;1.53;;;17.70;99.90;;;;;;4911795;29;20449;-84
2022/10/09 09:18:19;;;;;;;5.17;1.90;;;17.40;99.90;;;;;;4915522;29;20444;-82
2022/10/09 09:20:55;;;;;;;3.20;1.60;;;17.20;99.90;;;;;;4916638;29;20443;-82
2022/10/09 09:23:42;;;;;;;1.87;1.50;;;17.20;99.90;;;;;;4913541;29;20486;-82
2022/10/09 09:26:16;;;;;;;6.87;1.87;;;16.20;99.90;;;;;;4917811;29;20512;-82
2022/10/09 09:28:45;;;;;;;3.50;1.60;;;15.60;99.90;;;;;;4917613;29;20498;-82
2022/10/09 09:31:26;;;;;;;2.80;1.70;;;15.20;99.90;;;;;;4911030;29;20447;-81
2022/10/09 09:34:23;;;;;;;2.60;1.77;;;15.00;99.90;;;;;;4922526;29;20447;-83
2022/10/09 09:36:55;;;;;;;3.20;1.50;;;14.90;99.90;;;;;;4922852;29;20664;-83
2022/10/09 09:39:26;;;;;;;3.83;1.27;;;15.10;99.90;;;;;;4897162;29;20498;-82
2022/10/09 09:42:18;;;;;;;4.57;1.50;;;14.80;99.90;;;;;;4929355;29;20486;-81
2022/10/09 09:45:07;;;;;;;3.33;3.00;;;14.70;99.90;;;;;;4920452;29;20454;-83
2022/10/09 09:47:54;;;;;;;6.13;2.70;;;14.60;99.90;;;;;;4936588;29;20478;-82
2022/10/09 09:50:50;;;;;;;5.67;1.60;;;14.60;99.90;;;;;;4921594;29;20461;-81
2022/10/09 09:53:41;;;;;;;2.43;1.00;;;14.90;99.90;;;;;;4927160;29;20500;-84
2022/10/09 09:56:11;;;;;;;3.83;1.10;;;15.00;99.90;;;;;;4926570;29;20535;-85
2022/10/09 09:58:50;;;;;;;1.80;1.10;;;15.20;99.90;;;;;;4915799;29;20458;-84
2022/10/09 10:01:28;;;;;;;2.83;1.33;;;15.50;99.90;;;;;;4915614;29;20446;-84
2022/10/09 10:04:00;;;;;;;4.57;1.60;;;15.70;99.90;;;;;;4923796;29;20439;-84
2022/10/09 10:06:42;;;;;;;3.30;1.30;;;15.60;99.90;;;;;;4924048;29;20452;-83
2022/10/09 10:09:17;;;;;;;5.60;1.50;;;15.60;99.90;;;;;;4919743;29;20834;-84
2022/10/09 10:12:00;;;;;;;2.07;1.50;;;15.80;99.90;;;;;;4923991;29;20441;-85
2022/10/09 10:14:28;;;;;;;5.13;2.03;;;15.90;99.90;;;;;;4921486;29;20484;-86
2022/10/09 10:16:57;;;;;;;3.63;1.57;;;15.90;99.90;;;;;;4902910;29;20455;-85
2022/10/09 10:19:34;;;;;;;2.10;1.10;;;16.10;99.90;;;;;;4925069;29;20499;-85
2022/10/09 10:22:23;;;;;;;4.90;1.90;;;16.50;99.90;;;;;;4911876;29;20475;-86
2022/10/09 10:24:56;;;;;;;2.00;1.80;;;16.90;99.90;;;;;;4925191;29;20519;-85
2022/10/09 10:27:33;;;;;;;2.13;1.30;;;17.00;99.90;;;;;;4915335;29;20692;-86
2022/10/09 10:30:03;;;;;;;5.77;1.40;;;16.90;99.90;;;;;;4922957;29;20429;-85
2022/10/09 10:32:35;;;;;;;7.60;2.10;;;16.80;99.90;;;;;;4930667;29;20439;-85
2022/10/09 10:35:13;;;;;;;3.83;1.53;;;16.80;99.90;;;;;;4922816;29;20455;-81
2022/10/09 10:38:00;;;;;;;4.10;2.00;;;16.70;99.90;;;;;;4925743;29;20444;-82
2022/10/09 10:40:45;;;;;;;10.10;2.80;;;16.90;99.90;;;;;;4920056;29;20950;-84
2022/10/09 10:43:24;;;;;;;1.80;1.10;;;17.10;99.90;;;;;;4917361;29;20490;-84
2022/10/09 10:46:01;;;;;;;4.43;1.10;;;17.30;99.90;;;;;;4904414;29;20483;-83
2022/10/09 10:48:31;;;;;;;3.60;1.43;;;17.10;99.90;;;;;;4916973;29;20571;-80
2022/10/09 10:51:35;;;;;;;2.53;1.37;;;16.80;99.90;;;;;;4919344;29;20835;-83
2022/10/09 10:54:13;;;;;;;1.90;1.33;;;16.50;99.90;;;;;;4908657;29;20495;-86
2022/10/09 10:56:46;;;;;;;3.73;1.80;;;16.40;99.90;;;;;;4917263;29;20443;-86
2022/10/09 11:00:11;;;;;;;2.83;2.50;;;16.20;99.90;;;;;;4912779;29;20452;-82
2022/10/09 11:03:06;;;;;;;1.23;1.23;;;15.70;99.90;;;;;;4882112;29;20492;-85
2022/10/09 11:05:48;;;;;;;3.17;1.20;;;15.50;99.90;;;;;;4881260;29;21010;-85
2022/10/09 11:08:33;;;;;;;5.40;1.53;;;15.40;99.90;;;;;;4910391;29;20807;-82
2022/10/09 11:11:36;;;;;;;1.73;1.53;;;15.20;99.90;;;;;;4917986;29;20723;-85
2022/10/09 11:14:27;;;;;;;1.30;1.10;;;15.10;99.90;;;;;;4912169;29;20462;-85
2022/10/09 11:17:12;;;;;;;4.30;0.90;;;15.20;99.90;;;;;;4921821;29;20447;-85
2022/10/09 11:20:14;;;;;;;7.07;1.43;;;15.50;99.90;;;;;;4916018;29;20447;-84
2022/10/09 11:23:21;;;;;;;6.80;1.70;;;15.60;99.90;;;;;;4885942;29;20469;-85
2022/10/09 11:25:57;;;;;;;5.50;1.87;;;16.00;99.90;;;;;;4905041;29;20497;-83
2022/10/09 11:28:32;;;;;;;1.57;1.47;;;16.60;99.90;;;;;;4923340;29;20502;-87
2022/10/09 11:31:28;;;;;;;5.00;1.43;;;17.00;99.90;;;;;;4927918;29;20457;-86
2022/10/09 11:34:03;;;;;;;2.20;1.40;;;17.40;99.90;;;;;;4906332;29;20480;-84
2022/10/09 11:36:41;;;;;;;2.10;1.23;;;17.50;99.90;;;;;;4930638;29;20450;-85
2022/10/09 11:39:14;;;;;;;4.70;1.97;;;17.10;99.90;;;;;;4920616;29;20511;-82
2022/10/09 11:41:47;;;;;;;4.27;1.07;;;17.30;99.90;;;;;;4918905;29;20456;-83
2022/10/09 11:44:20;;;;;;;4.37;1.43;;;17.00;99.90;;;;;;4923932;29;20451;-84
2022/10/09 11:47:19;;;;;;;4.17;1.30;;;16.70;99.90;;;;;;4912705;29;20442;-80
2022/10/09 11:49:57;;;;;;;2.83;1.20;;;16.60;99.90;;;;;;4916330;29;20686;-81
2022/10/09 11:52:50;;;;;;;2.00;0.97;;;16.30;99.90;;;;;;4923846;29;20470;-79
2022/10/09 11:55:22;;;;;;;2.80;1.47;;;15.90;99.90;;;;;;4933036;29;20459;-85
2022/10/09 11:57:50;;;;;;;6.57;1.40;;;16.00;99.90;;;;;;4928798;29;20455;-87
2022/10/09 12:00:34;;;;;;;5.10;2.60;;;15.90;99.90;;;;;;4916321;29;20564;-86
2022/10/09 12:03:05;;;;;;;1.73;1.40;;;16.00;99.90;;;;;;4916310;29;20500;-86
2022/10/09 12:05:37;;;;;;;7.03;1.20;;;15.90;99.90;;;;;;4925204;29;20461;-87
2022/10/09 12:08:24;;;;;;;4.00;1.30;;;16.00;99.90;;;;;;4939729;29;20445;-86
2022/10/09 12:11:07;;;;;;;3.73;1.60;;;16.00;99.90;;;;;;4932916;29;20451;-83
2022/10/09 12:13:40;;;;;;;2.37;1.67;;;16.00;99.90;;;;;;4917474;29;20505;-86
2022/10/09 12:16:27;;;;;;;1.40;0.97;;;16.00;99.90;;;;;;4919110;29;20446;-85
2022/10/09 12:18:55;;;;;;;2.00;0.90;;;15.80;99.90;;;;;;4924416;29;20455;-85
2022/10/09 12:21:26;;;;;;;1.43;1.33;;;15.40;99.90;;;;;;4908607;29;20453;-85
2022/10/09 12:23:55;;;;;;;1.50;1.20;;;15.40;99.90;;;;;;4914580;29;20487;-85
2022/10/09 12:26:24;;;;;;;2.20;1.20;;;15.40;99.90;;;;;;4929691;29;20479;-85
2022/10/09 12:28:55;;;;;;;2.13;1.27;;;15.60;99.90;;;;;;4923341;29;20443;-86
2022/10/09 12:31:32;;;;;;;4.77;2.17;;;15.60;99.90;;;;;;4925147;29;20459;-85
2022/10/09 12:34:13;;;;;;;2.30;0.87;;;15.70;99.90;;;;;;4921186;29;20782;-84
2022/10/09 12:36:40;;;;;;;5.67;1.20;;;15.80;99.90;;;;;;4925050;29;20451;-87
2022/10/09 12:39:17;;;;;;;1.97;1.40;;;16.00;99.90;;;;;;4925504;29;20455;-86
2022/10/09 12:41:47;;;;;;;4.50;1.20;;;16.10;99.90;;;;;;4924951;29;20449;-85
2022/10/09 12:44:23;;;;;;;1.50;0.87;;;16.20;99.90;;;;;;4932907;29;20493;-83
2022/10/09 12:46:50;;;;;;;1.57;0.80;;;16.00;99.90;;;;;;4934393;29;20454;-81
2022/10/09 12:49:23;;;;;;;3.17;1.50;;;15.60;99.90;;;;;;4928653;29;20500;-87
2022/10/09 12:51:52;;;;;;;2.60;1.10;;;15.50;99.90;;;;;;4915435;29;20878;-84
2022/10/09 12:54:26;;;;;;;2.97;1.07;;;15.60;99.90;;;;;;4924774;29;20459;-87
2022/10/09 12:56:55;;;;;;;1.80;0.90;;;15.70;99.90;;;;;;4908786;29;20569;-86
2022/10/09 12:59:24;;;;;;;1.77;1.07;;;15.70;99.90;;;;;;4926908;29;20482;-83
2022/10/09 13:01:56;;;;;;;1.80;0.80;;;15.70;99.90;;;;;;4925322;29;20469;-85
2022/10/09 13:04:31;;;;;;;7.10;1.10;;;15.80;99.90;;;;;;4920702;29;20471;-86
2022/10/09 13:07:04;;;;;;;2.93;0.87;;;15.90;99.90;;;;;;4927864;29;20446;-86
2022/10/09 13:09:39;;;;;;;2.10;1.90;;;16.20;99.90;;;;;;4925568;29;20442;-87
2022/10/09 13:12:19;;;;;;;2.20;1.53;;;16.20;99.90;;;;;;4917762;29;20442;-88
2022/10/09 13:14:56;;;;;;;2.23;1.80;;;16.40;99.90;;;;;;4919912;29;20451;-87
2022/10/09 13:17:29;;;;;;;1.27;1.10;;;16.20;99.90;;;;;;4922911;29;20455;-87
2022/10/09 13:20:19;;;;;;;3.23;1.50;;;16.20;99.90;;;;;;4935454;29;20466;-86
2022/10/09 13:22:55;;;;;;;2.03;1.00;;;16.20;99.90;;;;;;4933028;29;20830;-86
2022/10/09 13:25:25;;;;;;;2.13;1.30;;;16.40;99.90;;;;;;4910848;29;20458;-85
2022/10/09 13:27:52;;;;;;;1.10;1.00;;;16.50;99.90;;;;;;4925423;29;20446;-86
2022/10/09 13:30:20;;;;;;;2.40;1.30;;;16.40;99.90;;;;;;4937467;29;20682;-86
2022/10/09 13:32:47;;;;;;;1.83;1.23;;;16.50;99.90;;;;;;4907715;29;20513;-85
2022/10/09 13:35:15;;;;;;;8.30;1.77;;;16.50;99.90;;;;;;4927412;29;20643;-85
2022/10/09 13:37:42;;;;;;;8.03;1.90;;;16.30;99.90;;;;;;4924487;29;20450;-86